Time;durP1;ratioP1;P1;durP2;ratioP2;P2;SDS_P1;SDS_P2;PMS_P1;PMS_P2;Temp;Humidity;BMP_temperature;BMP_pressure;BME280_temperature;BME280_humidity;BME280_pressure;Samples;Min_cycle;Max_cycle;Signal;HPM_P1;HPM_P2
2022/12/27 00:02:01;;;;;;;5.70;2.03;;;;;;;;;;4980607;28;20224;-74
2022/12/27 00:04:28;;;;;;;3.53;1.80;;;;;;;;;;4975901;28;20259;-73
2022/12/27 00:06:56;;;;;;;2.27;2.03;;;;;;;;;;4964203;28;20812;-73
2022/12/27 00:09:23;;;;;;;2.50;1.80;;;;;;;;;;4977347;28;20207;-74
2022/12/27 00:11:51;;;;;;;1.87;1.77;;;;;;;;;;4977612;28;20628;-73
2022/12/27 00:14:25;;;;;;;2.07;1.73;;;;;;;;;;4957546;28;20218;-74
2022/12/27 00:16:53;;;;;;;4.93;2.27;;;;;;;;;;4981682;28;20208;-72
2022/12/27 00:19:20;;;;;;;4.83;1.97;;;;;;;;;;4960084;28;20205;-73
2022/12/27 00:21:47;;;;;;;3.53;1.83;;;;;;;;;;4979066;28;20370;-73
2022/12/27 00:24:15;;;;;;;2.13;1.70;;;;;;;;;;4980297;28;20291;-72
2022/12/27 00:26:42;;;;;;;2.57;1.70;;;;;;;;;;4971697;28;20200;-74
2022/12/27 00:29:10;;;;;;;5.33;1.87;;;;;;;;;;4955232;28;20211;-73
2022/12/27 00:31:37;;;;;;;2.17;1.67;;;;;;;;;;4965368;28;20255;-74
2022/12/27 00:34:06;;;;;;;4.00;1.70;;;;;;;;;;4964876;28;20203;-74
2022/12/27 00:36:34;;;;;;;3.90;1.67;;;;;;;;;;4974323;28;20205;-74
2022/12/27 00:39:02;;;;;;;1.77;1.67;;;;;;;;;;4977378;28;20212;-75
2022/12/27 00:41:30;;;;;;;2.27;1.80;;;;;;;;;;4975950;28;20720;-73
2022/12/27 00:43:57;;;;;;;2.33;1.73;;;;;;;;;;4974879;28;20299;-74
2022/12/27 00:46:24;;;;;;;3.03;2.00;;;;;;;;;;4977838;28;20363;-74
2022/12/27 00:48:52;;;;;;;4.30;1.70;;;;;;;;;;4974961;28;20655;-74
2022/12/27 00:51:21;;;;;;;1.90;1.70;;;;;;;;;;4969385;28;20254;-74
2022/12/27 00:53:49;;;;;;;1.90;1.70;;;;;;;;;;4972870;28;20219;-74
2022/12/27 00:56:18;;;;;;;2.67;2.47;;;;;;;;;;4965165;28;20254;-74
2022/12/27 00:58:46;;;;;;;2.23;2.00;;;;;;;;;;4961104;28;20274;-74
2022/12/27 01:01:20;;;;;;;2.70;2.00;;;;;;;;;;4955476;28;20224;-74
2022/12/27 01:03:47;;;;;;;2.43;1.70;;;;;;;;;;4973679;28;20207;-73
2022/12/27 01:06:16;;;;;;;2.00;1.90;;;;;;;;;;4963992;28;20227;-73
2022/12/27 01:08:44;;;;;;;2.53;2.10;;;;;;;;;;4964770;28;20579;-73
2022/12/27 01:11:12;;;;;;;2.17;1.90;;;;;;;;;;4975966;28;20240;-73
2022/12/27 01:13:39;;;;;;;2.00;1.80;;;;;;;;;;4967447;28;20614;-74
2022/12/27 01:16:10;;;;;;;4.17;1.73;;;;;;;;;;4968565;28;20302;-74
2022/12/27 01:18:37;;;;;;;1.93;1.83;;;;;;;;;;4963156;28;20883;-74
2022/12/27 01:21:09;;;;;;;2.20;2.00;;;;;;;;;;4975010;28;20231;-74
2022/12/27 01:23:36;;;;;;;1.80;1.70;;;;;;;;;;4973373;28;20692;-74
2022/12/27 01:26:05;;;;;;;2.70;1.83;;;;;;;;;;4966375;28;20232;-74
2022/12/27 01:28:32;;;;;;;2.60;2.03;;;;;;;;;;4972867;28;20204;-73
2022/12/27 01:31:04;;;;;;;4.23;2.10;;;;;;;;;;4967977;28;20675;-73
2022/12/27 01:33:31;;;;;;;2.40;2.00;;;;;;;;;;4961449;28;20216;-74
2022/12/27 01:36:06;;;;;;;2.07;1.87;;;;;;;;;;4969125;28;20223;-73
2022/12/27 01:38:33;;;;;;;4.00;3.23;;;;;;;;;;4950102;28;20207;-73
2022/12/27 01:42:50;;;;;;;3.10;1.83;;;;;;;;;;4977256;28;20247;-73
2022/12/27 01:43:48;;;;;;;3.20;2.17;;;;;;;;;;4976803;28;20658;-73
2022/12/27 01:46:16;;;;;;;4.67;2.10;;;;;;;;;;4982134;28;20224;-74
2022/12/27 01:48:43;;;;;;;3.37;2.30;;;;;;;;;;4968764;28;20208;-74
2022/12/27 01:51:11;;;;;;;4.17;2.00;;;;;;;;;;4975145;28;20306;-73
2022/12/27 01:53:41;;;;;;;3.20;2.07;;;;;;;;;;4968407;28;20204;-73
2022/12/27 01:56:14;;;;;;;2.20;2.10;;;;;;;;;;4969720;28;20223;-73
2022/12/27 01:58:41;;;;;;;3.50;2.20;;;;;;;;;;4962155;28;20208;-74
2022/12/27 02:01:17;;;;;;;4.10;2.20;;;;;;;;;;4977443;28;20315;-73
2022/12/27 02:04:07;;;;;;;3.20;2.00;;;;;;;;;;4971885;28;20212;-73
2022/12/27 02:06:39;;;;;;;4.40;2.47;;;;;;;;;;4962775;28;20322;-74
2022/12/27 02:09:18;;;;;;;2.87;2.57;;;;;;;;;;4966001;28;20214;-73
2022/12/27 02:11:50;;;;;;;2.10;1.90;;;;;;;;;;4966893;28;20326;-73
2022/12/27 02:14:20;;;;;;;3.50;2.93;;;;;;;;;;4964404;28;20315;-73
2022/12/27 02:16:54;;;;;;;3.67;2.70;;;;;;;;;;4974571;28;20283;-73
2022/12/27 02:19:42;;;;;;;3.43;2.10;;;;;;;;;;4969633;28;20212;-73
2022/12/27 02:22:28;;;;;;;3.77;2.20;;;;;;;;;;4972013;28;20944;-73
2022/12/27 02:25:14;;;;;;;2.50;2.30;;;;;;;;;;4963059;28;20236;-73
2022/12/27 02:27:45;;;;;;;3.30;2.27;;;;;;;;;;4955777;28;23054;-74
2022/12/27 02:30:13;;;;;;;2.20;2.00;;;;;;;;;;4961209;28;20231;-73
2022/12/27 02:32:44;;;;;;;2.17;2.07;;;;;;;;;;4973298;28;21066;-73
2022/12/27 02:35:35;;;;;;;2.73;2.10;;;;;;;;;;4972336;28;20228;-73
2022/12/27 02:38:11;;;;;;;2.40;2.10;;;;;;;;;;4954673;28;20287;-74
2022/12/27 02:54:42;;;;;;;3.40;2.07;;;;;;;;;;4969992;28;20291;-73
2022/12/27 02:57:27;;;;;;;3.33;2.00;;;;;;;;;;4980400;28;20634;-74
2022/12/27 03:03:22;;;;;;;2.00;1.80;;;;;;;;;;4977045;28;20220;-73
2022/12/27 03:06:38;;;;;;;2.00;1.80;;;;;;;;;;4970701;28;20383;-74
2022/12/27 03:08:47;;;;;;;4.60;2.30;;;;;;;;;;4972484;28;20208;-73
2022/12/27 03:17:07;;;;;;;2.43;1.83;;;;;;;;;;4965942;28;23788;-73
2022/12/27 03:25:27;;;;;;;5.03;2.00;;;;;;;;;;4979285;28;20228;-73
2022/12/27 03:33:36;;;;;;;4.07;2.40;;;;;;;;;;4957963;28;20215;-74
2022/12/27 03:38:59;;;;;;;3.37;2.60;;;;;;;;;;4971938;28;20900;-73
2022/12/27 03:44:25;;;;;;;4.10;2.93;;;;;;;;;;4969398;28;20212;-73
2022/12/27 03:46:59;;;;;;;4.60;3.47;;;;;;;;;;4964364;28;20612;-73
2022/12/27 03:49:41;;;;;;;2.37;2.00;;;;;;;;;;4974226;28;20218;-72
2022/12/27 03:52:17;;;;;;;4.00;2.77;;;;;;;;;;4971089;28;20221;-73
2022/12/27 03:54:46;;;;;;;4.87;2.20;;;;;;;;;;4977285;28;20259;-73
2022/12/27 03:57:14;;;;;;;4.87;2.20;;;;;;;;;;4969411;28;20205;-72
2022/12/27 03:59:42;;;;;;;3.93;2.10;;;;;;;;;;4974901;28;20200;-73
2022/12/27 04:02:09;;;;;;;2.57;1.90;;;;;;;;;;4974125;28;20776;-73
2022/12/27 04:04:37;;;;;;;3.77;2.30;;;;;;;;;;4969945;28;20299;-73
2022/12/27 04:07:04;;;;;;;2.20;2.00;;;;;;;;;;4976664;28;20775;-73
2022/12/27 04:34:42;;;;;;;3.90;2.20;;;;;;;;;;4958845;28;20204;-73
2022/12/27 04:37:11;;;;;;;2.00;1.77;;;;;;;;;;4970968;28;20296;-73
2022/12/27 04:39:38;;;;;;;2.90;1.93;;;;;;;;;;4966851;28;20212;-73
2022/12/27 04:56:03;;;;;;;3.30;1.90;;;;;;;;;;4963142;28;20251;-73
2022/12/27 04:58:30;;;;;;;2.17;1.97;;;;;;;;;;4962538;28;20612;-73
2022/12/27 05:03:46;;;;;;;3.47;2.40;;;;;;;;;;4950471;28;20205;-73
2022/12/27 05:06:14;;;;;;;2.73;1.73;;;;;;;;;;4959238;28;20226;-72
2022/12/27 05:14:14;;;;;;;1.97;1.80;;;;;;;;;;4973233;28;20648;-73
2022/12/27 05:16:42;;;;;;;2.70;1.63;;;;;;;;;;4971170;28;20215;-72
2022/12/27 05:19:11;;;;;;;2.40;1.60;;;;;;;;;;4969115;28;20201;-73
2022/12/27 05:21:39;;;;;;;1.80;1.60;;;;;;;;;;4970447;28;20330;-73
2022/12/27 05:26:55;;;;;;;3.37;1.70;;;;;;;;;;4955204;28;20243;-73
2022/12/27 05:29:22;;;;;;;5.87;1.60;;;;;;;;;;4952136;28;20208;-72
2022/12/27 05:31:49;;;;;;;2.13;1.60;;;;;;;;;;4959611;28;20227;-72
2022/12/27 05:34:17;;;;;;;3.63;1.57;;;;;;;;;;4955373;28;20220;-72
2022/12/27 05:36:44;;;;;;;2.40;1.43;;;;;;;;;;4954244;28;20208;-72
2022/12/27 05:39:11;;;;;;;2.67;1.70;;;;;;;;;;4953204;28;20615;-73
2022/12/27 05:41:38;;;;;;;1.70;1.60;;;;;;;;;;4955641;28;20732;-72
2022/12/27 05:44:06;;;;;;;2.07;1.70;;;;;;;;;;4971438;28;20299;-72
2022/12/27 05:46:34;;;;;;;1.70;1.60;;;;;;;;;;4963901;28;20228;-72
2022/12/27 05:49:02;;;;;;;3.47;1.80;;;;;;;;;;4966172;28;20197;-73
2022/12/27 05:51:29;;;;;;;4.27;3.90;;;;;;;;;;4966746;28;20228;-73
2022/12/27 05:53:56;;;;;;;7.77;4.53;;;;;;;;;;4974032;28;20638;-72
2022/12/27 05:56:23;;;;;;;7.73;4.60;;;;;;;;;;4976592;28;20208;-72
2022/12/27 05:58:54;;;;;;;6.30;4.73;;;;;;;;;;4957714;28;20640;-73
2022/12/27 06:01:21;;;;;;;6.80;4.33;;;;;;;;;;4960965;28;20339;-73
2022/12/27 06:03:51;;;;;;;4.10;3.47;;;;;;;;;;4965334;28;20308;-73
2022/12/27 06:06:18;;;;;;;4.30;3.17;;;;;;;;;;4963349;28;20311;-73
2022/12/27 06:08:45;;;;;;;2.70;2.50;;;;;;;;;;4961012;28;20200;-73
2022/12/27 06:11:14;;;;;;;5.93;3.50;;;;;;;;;;4972503;28;20232;-73
2022/12/27 06:13:42;;;;;;;18.60;8.37;;;;;;;;;;4973161;28;20196;-72
2022/12/27 06:16:11;;;;;;;15.33;7.47;;;;;;;;;;4966413;28;20299;-72
2022/12/27 06:18:39;;;;;;;14.17;6.93;;;;;;;;;;4973193;28;20207;-73
2022/12/27 06:21:11;;;;;;;7.50;4.40;;;;;;;;;;4975936;28;20331;-73
2022/12/27 06:23:39;;;;;;;8.73;2.73;;;;;;;;;;4966778;28;20250;-73
2022/12/27 06:26:08;;;;;;;3.27;2.20;;;;;;;;;;4972943;28;20327;-73
2022/12/27 06:28:35;;;;;;;5.30;3.33;;;;;;;;;;4972726;28;20554;-72
2022/12/27 06:31:03;;;;;;;7.67;3.90;;;;;;;;;;4967556;28;20243;-71
2022/12/27 06:33:30;;;;;;;5.03;3.07;;;;;;;;;;4951879;28;20327;-72
2022/12/27 06:35:57;;;;;;;3.93;3.30;;;;;;;;;;4970218;28;20240;-73
2022/12/27 06:38:25;;;;;;;5.90;4.23;;;;;;;;;;4971565;28;20200;-72
2022/12/27 06:40:52;;;;;;;9.43;6.27;;;;;;;;;;4970842;28;20320;-72
2022/12/27 06:43:20;;;;;;;8.37;6.17;;;;;;;;;;4965412;28;20206;-72
2022/12/27 06:45:54;;;;;;;14.70;11.97;;;;;;;;;;4970743;28;20802;-72
2022/12/27 06:48:22;;;;;;;8.57;6.03;;;;;;;;;;4972104;28;20303;-72
2022/12/27 06:50:49;;;;;;;7.50;5.53;;;;;;;;;;4957430;28;20587;-72
2022/12/27 06:53:17;;;;;;;11.27;10.07;;;;;;;;;;4979340;28;20311;-73
2022/12/27 06:55:44;;;;;;;8.70;7.90;;;;;;;;;;4975976;28;20213;-72
2022/12/27 06:58:12;;;;;;;9.50;8.50;;;;;;;;;;4969759;28;20202;-73
2022/12/27 07:00:39;;;;;;;7.10;6.20;;;;;;;;;;4973769;28;20279;-72
2022/12/27 07:03:07;;;;;;;5.37;4.30;;;;;;;;;;4974861;28;20303;-72
2022/12/27 07:05:35;;;;;;;6.67;6.07;;;;;;;;;;4976081;28;20214;-72
2022/12/27 07:08:03;;;;;;;5.07;3.47;;;;;;;;;;4970220;28;20315;-72
2022/12/27 07:10:30;;;;;;;3.20;2.90;;;;;;;;;;4973735;28;20703;-71
2022/12/27 07:12:57;;;;;;;5.23;2.90;;;;;;;;;;4971346;28;20528;-71
2022/12/27 07:15:25;;;;;;;6.33;2.50;;;;;;;;;;4959467;28;20224;-72
2022/12/27 07:17:52;;;;;;;4.00;2.70;;;;;;;;;;4969970;28;20223;-71
2022/12/27 07:20:20;;;;;;;3.27;2.97;;;;;;;;;;4968108;28;20230;-71
2022/12/27 07:22:47;;;;;;;4.83;3.60;;;;;;;;;;4965651;28;20479;-72
2022/12/27 07:25:14;;;;;;;3.60;3.30;;;;;;;;;;4971248;28;20765;-72
2022/12/27 07:27:41;;;;;;;5.30;2.97;;;;;;;;;;4970233;28;20234;-72
2022/12/27 07:30:09;;;;;;;3.13;2.83;;;;;;;;;;4974837;28;20209;-72
2022/12/27 07:32:36;;;;;;;3.77;2.77;;;;;;;;;;4979373;28;20308;-72
2022/12/27 07:35:04;;;;;;;5.37;3.40;;;;;;;;;;4977314;28;20212;-72
2022/12/27 07:37:31;;;;;;;5.03;4.03;;;;;;;;;;4978581;28;20425;-71
2022/12/27 07:39:58;;;;;;;4.43;4.03;;;;;;;;;;4981317;28;20216;-71
2022/12/27 07:42:25;;;;;;;3.87;3.43;;;;;;;;;;4977510;28;20212;-71
2022/12/27 07:44:53;;;;;;;8.37;5.90;;;;;;;;;;4976499;28;20215;-71
2022/12/27 07:47:20;;;;;;;6.67;4.70;;;;;;;;;;4974930;28;20599;-71
2022/12/27 07:49:47;;;;;;;6.03;3.93;;;;;;;;;;4980553;28;20749;-70
2022/12/27 07:52:15;;;;;;;7.40;5.13;;;;;;;;;;4982126;28;20242;-71
2022/12/27 07:54:42;;;;;;;6.13;5.13;;;;;;;;;;4982148;28;20196;-71
2022/12/27 07:57:09;;;;;;;6.07;4.80;;;;;;;;;;4958760;28;20295;-71
2022/12/27 07:59:36;;;;;;;7.13;4.60;;;;;;;;;;4960724;28;20208;-71
2022/12/27 08:02:04;;;;;;;6.07;4.60;;;;;;;;;;4965744;28;20239;-70
2022/12/27 08:04:33;;;;;;;7.53;4.40;;;;;;;;;;4958177;28;20300;-71
2022/12/27 08:07:03;;;;;;;27.93;14.13;;;;;;;;;;4958911;28;20345;-70
2022/12/27 08:09:33;;;;;;;20.80;11.50;;;;;;;;;;4971938;28;20212;-72
2022/12/27 08:12:00;;;;;;;16.40;11.53;;;;;;;;;;4959764;28;20236;-71
2022/12/27 08:14:28;;;;;;;12.80;10.40;;;;;;;;;;4964019;28;20282;-72
2022/12/27 08:17:04;;;;;;;11.70;9.90;;;;;;;;;;4968542;28;20220;-71
2022/12/27 08:19:31;;;;;;;8.03;7.10;;;;;;;;;;4960972;28;20212;-72
2022/12/27 08:21:59;;;;;;;7.97;5.87;;;;;;;;;;4960589;28;20228;-72
2022/12/27 08:24:26;;;;;;;7.63;5.90;;;;;;;;;;4958657;28;20303;-72
2022/12/27 08:26:53;;;;;;;8.10;4.77;;;;;;;;;;4951375;28;20254;-72
2022/12/27 08:29:21;;;;;;;6.67;4.23;;;;;;;;;;4964573;28;20676;-72
2022/12/27 08:31:48;;;;;;;3.87;3.07;;;;;;;;;;4961478;28;20247;-71
2022/12/27 08:34:15;;;;;;;5.63;3.17;;;;;;;;;;4969309;28;20706;-72
2022/12/27 08:36:42;;;;;;;6.50;2.87;;;;;;;;;;4957481;28;20594;-71
2022/12/27 08:39:26;;;;;;;3.30;2.00;;;;;;;;;;4956987;28;20216;-72
2022/12/27 08:41:54;;;;;;;2.10;2.00;;;;;;;;;;4966451;28;20231;-72
2022/12/27 08:44:22;;;;;;;2.00;1.90;;;;;;;;;;4962872;28;20239;-72
2022/12/27 08:46:49;;;;;;;2.70;2.33;;;;;;;;;;4964529;28;21193;-71
2022/12/27 08:49:17;;;;;;;4.40;3.10;;;;;;;;;;4952712;28;20950;-72
2022/12/27 08:51:44;;;;;;;6.67;4.23;;;;;;;;;;4948280;28;20238;-72
2022/12/27 08:54:11;;;;;;;4.67;3.47;;;;;;;;;;4955867;28;20201;-72
2022/12/27 08:56:38;;;;;;;4.53;3.10;;;;;;;;;;4942716;28;20235;-72
2022/12/27 08:59:05;;;;;;;6.43;3.67;;;;;;;;;;4942900;28;20502;-72
2022/12/27 09:01:33;;;;;;;11.10;4.37;;;;;;;;;;4946060;28;20224;-71
2022/12/27 09:04:00;;;;;;;3.83;2.77;;;;;;;;;;4947814;28;20604;-72
2022/12/27 09:06:28;;;;;;;6.67;3.60;;;;;;;;;;4947991;28;20283;-72
2022/12/27 09:08:56;;;;;;;5.20;3.10;;;;;;;;;;4949582;28;20665;-71
2022/12/27 09:11:25;;;;;;;5.20;3.00;;;;;;;;;;4962011;28;22839;-71
2022/12/27 09:13:52;;;;;;;5.03;3.20;;;;;;;;;;4920898;28;21671;-71
2022/12/27 09:16:21;;;;;;;3.27;2.60;;;;;;;;;;4944702;28;20208;-71
2022/12/27 09:18:49;;;;;;;5.67;2.70;;;;;;;;;;4955688;28;20210;-71
2022/12/27 09:21:17;;;;;;;6.60;3.30;;;;;;;;;;4945476;28;20742;-70
2022/12/27 09:23:45;;;;;;;2.43;2.23;;;;;;;;;;4943487;28;20213;-71
2022/12/27 09:26:17;;;;;;;2.30;2.10;;;;;;;;;;4931240;28;20219;-70
2022/12/27 09:28:45;;;;;;;3.40;2.13;;;;;;;;;;4940139;28;20236;-71
2022/12/27 09:31:13;;;;;;;4.17;2.37;;;;;;;;;;4946698;28;20818;-71
2022/12/27 09:33:41;;;;;;;4.73;3.10;;;;;;;;;;4946274;28;20653;-71
2022/12/27 09:36:12;;;;;;;2.07;1.87;;;;;;;;;;4944320;28;21159;-70
2022/12/27 09:38:40;;;;;;;1.90;1.70;;;;;;;;;;4947769;28;20208;-71
2022/12/27 09:41:14;;;;;;;3.13;2.23;;;;;;;;;;4955673;28;20229;-72
2022/12/27 09:44:16;;;;;;;4.20;2.87;;;;;;;;;;4964582;28;20790;-71
2022/12/27 09:46:48;;;;;;;4.17;2.40;;;;;;;;;;4948884;28;20722;-70
2022/12/27 09:49:25;;;;;;;3.83;2.50;;;;;;;;;;4946322;28;20210;-70
2022/12/27 09:51:57;;;;;;;2.17;1.93;;;;;;;;;;4951100;28;20346;-71
2022/12/27 09:54:26;;;;;;;2.53;2.33;;;;;;;;;;4944506;28;20275;-72
2022/12/27 09:56:53;;;;;;;2.03;1.90;;;;;;;;;;4952121;28;20587;-71
2022/12/27 09:59:44;;;;;;;2.20;2.00;;;;;;;;;;4967764;28;20395;-72
2022/12/27 10:02:19;;;;;;;3.73;2.20;;;;;;;;;;4968740;28;20224;-72
2022/12/27 10:04:47;;;;;;;2.30;2.03;;;;;;;;;;4953706;28;20235;-71
2022/12/27 10:07:53;;;;;;;6.60;1.83;;;;;;;;;;4954488;28;20224;-71
2022/12/27 10:10:33;;;;;;;2.60;1.97;;;;;;;;;;4944462;28;21292;-72
2022/12/27 10:13:19;;;;;;;2.00;1.47;;;;;;;;;;4957092;28;20203;-72
2022/12/27 10:15:59;;;;;;;13.63;1.80;;;;;;;;;;4957058;28;20470;-71
2022/12/27 10:18:36;;;;;;;2.40;1.30;;;;;;;;;;4953085;28;20218;-71
2022/12/27 10:21:20;;;;;;;2.40;1.50;;;;;;;;;;4954070;28;20242;-71
2022/12/27 10:24:01;;;;;;;2.00;1.73;;;;;;;;;;4937537;28;20756;-71
2022/12/27 10:26:28;;;;;;;1.33;1.23;;;;;;;;;;4941441;28;20796;-70
2022/12/27 10:29:01;;;;;;;3.30;1.70;;;;;;;;;;4956852;28;20882;-71
2022/12/27 10:31:30;;;;;;;2.03;1.20;;;;;;;;;;4960173;28;20232;-73
2022/12/27 10:33:57;;;;;;;1.60;1.10;;;;;;;;;;4974616;28;20452;-71
2022/12/27 10:36:26;;;;;;;2.07;1.90;;;;;;;;;;4957394;28;20653;-73
2022/12/27 10:38:54;;;;;;;1.77;1.40;;;;;;;;;;4958367;28;20208;-73
2022/12/27 10:41:35;;;;;;;1.07;1.07;;;;;;;;;;4963245;28;20728;-71
2022/12/27 10:44:02;;;;;;;2.63;2.43;;;;;;;;;;4964109;28;20223;-71
2022/12/27 10:46:31;;;;;;;10.77;6.03;;;;;;;;;;4956421;28;20222;-74
2022/12/27 10:49:18;;;;;;;2.53;2.33;;;;;;;;;;4959667;28;20259;-71
2022/12/27 10:51:48;;;;;;;3.93;2.53;;;;;;;;;;4956993;28;20240;-71
2022/12/27 10:54:18;;;;;;;53.17;19.67;;;;;;;;;;4956062;28;20300;-74
2022/12/27 10:56:46;;;;;;;3.00;2.63;;;;;;;;;;4982230;28;20219;-71
2022/12/27 10:59:15;;;;;;;2.00;1.60;;;;;;;;;;4970729;28;20286;-71
2022/12/27 11:01:44;;;;;;;26.33;10.17;;;;;;;;;;4959590;28;20298;-71
2022/12/27 11:04:14;;;;;;;15.37;8.70;;;;;;;;;;4957023;28;20204;-73
2022/12/27 11:06:52;;;;;;;8.53;3.27;;;;;;;;;;4971768;28;20631;-72
2022/12/27 11:09:29;;;;;;;4.10;2.50;;;;;;;;;;4967334;28;20205;-72
2022/12/27 11:12:15;;;;;;;3.80;2.10;;;;;;;;;;4969406;28;20649;-74
2022/12/27 11:14:59;;;;;;;1.50;1.50;;;;;;;;;;4948903;28;20197;-73
2022/12/27 11:17:36;;;;;;;8.13;1.40;;;;;;;;;;4956262;28;20212;-72
2022/12/27 11:20:23;;;;;;;1.00;0.90;;;;;;;;;;4972984;28;20223;-72
2022/12/27 11:23:02;;;;;;;2.83;1.20;;;;;;;;;;4964957;28;20209;-72
2022/12/27 11:25:30;;;;;;;1.20;1.10;;;;;;;;;;4975270;28;20212;-73
2022/12/27 11:28:03;;;;;;;1.30;1.30;;;;;;;;;;4963592;28;20252;-72
2022/12/27 11:30:54;;;;;;;1.10;1.03;;;;;;;;;;4955802;28;20687;-74
2022/12/27 11:33:26;;;;;;;2.30;1.30;;;;;;;;;;4950123;28;20217;-74
2022/12/27 11:35:55;;;;;;;1.03;1.00;;;;;;;;;;4967305;28;20291;-73
2022/12/27 11:38:24;;;;;;;1.03;0.93;;;;;;;;;;4962858;28;20204;-74
2022/12/27 11:41:00;;;;;;;1.00;1.00;;;;;;;;;;4970014;28;20656;-74
2022/12/27 11:43:30;;;;;;;1.43;1.23;;;;;;;;;;4966434;28;20306;-74
2022/12/27 11:45:58;;;;;;;1.10;1.00;;;;;;;;;;4967590;28;20941;-72
2022/12/27 11:48:29;;;;;;;1.30;1.20;;;;;;;;;;4968098;28;20235;-71
2022/12/27 11:50:57;;;;;;;1.40;1.30;;;;;;;;;;4964619;28;20235;-72
2022/12/27 11:53:43;;;;;;;7.50;1.47;;;;;;;;;;4958001;28;20201;-74
2022/12/27 11:56:28;;;;;;;1.53;1.10;;;;;;;;;;4964472;28;20638;-71
2022/12/27 11:59:03;;;;;;;1.60;1.20;;;;;;;;;;4984064;28;20215;-71
2022/12/27 12:01:49;;;;;;;1.67;1.23;;;;;;;;;;4956943;28;20220;-73
2022/12/27 12:04:31;;;;;;;3.23;2.17;;;;;;;;;;4957232;28;22323;-73
2022/12/27 12:06:59;;;;;;;4.13;2.03;;;;;;;;;;4944531;28;20220;-73
2022/12/27 12:09:39;;;;;;;6.57;3.47;;;;;;;;;;4954054;28;20260;-73
2022/12/27 12:12:25;;;;;;;1.63;1.33;;;;;;;;;;4960363;28;20271;-73
2022/12/27 12:15:18;;;;;;;2.83;1.33;;;;;;;;;;4960860;28;20215;-72
2022/12/27 12:17:55;;;;;;;0.90;0.90;;;;;;;;;;4931690;28;20637;-71
2022/12/27 12:20:29;;;;;;;1.37;1.27;;;;;;;;;;4928787;28;20333;-72
2022/12/27 12:23:25;;;;;;;1.80;1.37;;;;;;;;;;4928226;28;20861;-72
2022/12/27 12:26:05;;;;;;;1.80;0.80;;;;;;;;;;4903518;28;20223;-72
2022/12/27 12:28:33;;;;;;;0.77;0.77;;;;;;;;;;4932716;28;20457;-72
2022/12/27 12:31:20;;;;;;;2.27;1.27;;;;;;;;;;4950057;28;20714;-71
2022/12/27 12:34:02;;;;;;;0.80;0.80;;;;;;;;;;4968103;28;20205;-72
2022/12/27 12:36:29;;;;;;;2.10;1.27;;;;;;;;;;4965321;28;20625;-73
2022/12/27 12:39:00;;;;;;;2.50;1.00;;;;;;;;;;4945200;28;20216;-73
2022/12/27 12:41:46;;;;;;;0.90;0.90;;;;;;;;;;4945534;28;20232;-72
2022/12/27 12:44:29;;;;;;;0.70;0.70;;;;;;;;;;4939162;28;20646;-72
2022/12/27 12:47:11;;;;;;;1.00;1.00;;;;;;;;;;4974639;28;20295;-74
2022/12/27 12:49:41;;;;;;;1.70;0.80;;;;;;;;;;4963253;28;20228;-72
2022/12/27 12:52:19;;;;;;;1.10;1.07;;;;;;;;;;4962667;28;20224;-72
2022/12/27 12:54:56;;;;;;;1.10;1.00;;;;;;;;;;4949805;28;20695;-72
2022/12/27 12:57:32;;;;;;;1.13;0.90;;;;;;;;;;4961400;28;20208;-70
2022/12/27 13:00:11;;;;;;;2.20;0.97;;;;;;;;;;4936837;28;21119;-71
2022/12/27 13:02:38;;;;;;;0.90;0.90;;;;;;;;;;4962017;28;20201;-70
2022/12/27 13:05:06;;;;;;;1.10;1.10;;;;;;;;;;4961222;28;20295;-71
2022/12/27 13:07:33;;;;;;;1.00;0.90;;;;;;;;;;4970097;28;20204;-71
2022/12/27 13:10:24;;;;;;;2.93;1.10;;;;;;;;;;4924251;28;20208;-72
2022/12/27 13:12:54;;;;;;;0.90;0.90;;;;;;;;;;4923649;28;20456;-72
2022/12/27 13:15:40;;;;;;;2.87;1.60;;;;;;;;;;4929915;28;20223;-70
2022/12/27 13:18:17;;;;;;;1.40;1.30;;;;;;;;;;4916998;28;20454;-71
2022/12/27 13:20:53;;;;;;;2.10;1.20;;;;;;;;;;4914789;28;20228;-71
2022/12/27 13:23:20;;;;;;;1.30;1.20;;;;;;;;;;4932607;28;20216;-71
2022/12/27 13:25:50;;;;;;;1.00;1.00;;;;;;;;;;4934397;28;20209;-72
2022/12/27 13:28:20;;;;;;;2.10;0.90;;;;;;;;;;4931089;28;20374;-71
2022/12/27 13:30:59;;;;;;;2.13;2.00;;;;;;;;;;4922795;28;20239;-72
2022/12/27 13:33:30;;;;;;;2.40;1.10;;;;;;;;;;4966542;28;20204;-72
2022/12/27 13:36:03;;;;;;;0.93;0.93;;;;;;;;;;4973015;28;20467;-72
2022/12/27 13:38:53;;;;;;;2.60;1.03;;;;;;;;;;4946894;28;20673;-72
2022/12/27 13:41:26;;;;;;;2.63;1.17;;;;;;;;;;4943396;28;20232;-71
2022/12/27 13:44:14;;;;;;;2.73;1.30;;;;;;;;;;4927321;28;20217;-71
2022/12/27 13:46:42;;;;;;;1.43;1.27;;;;;;;;;;4939299;28;20208;-72
2022/12/27 13:49:29;;;;;;;1.43;1.10;;;;;;;;;;4910290;28;20283;-72
2022/12/27 13:52:02;;;;;;;1.43;1.30;;;;;;;;;;4921715;28;20227;-72
2022/12/27 13:54:32;;;;;;;3.73;2.80;;;;;;;;;;4920300;28;20208;-72
2022/12/27 13:57:02;;;;;;;7.20;1.43;;;;;;;;;;4917885;28;20213;-71
2022/12/27 13:59:43;;;;;;;1.00;1.00;;;;;;;;;;4900921;28;20274;-72
2022/12/27 14:02:29;;;;;;;2.37;1.90;;;;;;;;;;4921522;28;20237;-72
2022/12/27 14:04:56;;;;;;;1.13;1.13;;;;;;;;;;4918223;28;20561;-72
2022/12/27 14:07:44;;;;;;;1.17;1.07;;;;;;;;;;4936981;28;20204;-72
2022/12/27 14:10:30;;;;;;;2.83;1.07;;;;;;;;;;4930316;28;20802;-73
2022/12/27 14:12:58;;;;;;;0.97;0.97;;;;;;;;;;4924089;28;20235;-74
2022/12/27 14:15:26;;;;;;;1.17;1.07;;;;;;;;;;4921512;28;20223;-72
2022/12/27 14:17:56;;;;;;;1.37;1.30;;;;;;;;;;4914691;28;20634;-72
2022/12/27 14:20:26;;;;;;;1.50;1.10;;;;;;;;;;4923434;28;20261;-72
2022/12/27 14:23:09;;;;;;;1.33;1.30;;;;;;;;;;4929048;28;20212;-72
2022/12/27 14:26:09;;;;;;;1.60;1.40;;;;;;;;;;4934823;28;20216;-73
2022/12/27 14:28:55;;;;;;;1.20;1.20;;;;;;;;;;4897872;28;20232;-71
2022/12/27 14:31:32;;;;;;;2.13;1.20;;;;;;;;;;4921082;28;20793;-71
2022/12/27 14:34:06;;;;;;;1.40;1.20;;;;;;;;;;4944930;28;20355;-71
2022/12/27 14:36:36;;;;;;;1.23;1.13;;;;;;;;;;4948944;28;23302;-72
2022/12/27 14:39:17;;;;;;;1.70;1.60;;;;;;;;;;4955313;28;21402;-72
2022/12/27 14:41:47;;;;;;;3.07;1.20;;;;;;;;;;4940912;28;20326;-73
2022/12/27 14:44:33;;;;;;;1.10;1.10;;;;;;;;;;4936492;28;20587;-73
2022/12/27 14:47:19;;;;;;;1.67;1.27;;;;;;;;;;4933507;28;21235;-72
2022/12/27 14:49:47;;;;;;;3.33;1.33;;;;;;;;;;4937123;28;20231;-73
2022/12/27 14:52:27;;;;;;;1.43;1.17;;;;;;;;;;4929805;28;20343;-72
2022/12/27 14:55:21;;;;;;;0.80;0.80;;;;;;;;;;4918943;28;20205;-73
2022/12/27 14:58:02;;;;;;;3.13;1.37;;;;;;;;;;4932077;28;20215;-74
2022/12/27 15:00:44;;;;;;;1.23;1.13;;;;;;;;;;4919481;28;20316;-73
2022/12/27 15:03:31;;;;;;;1.17;1.13;;;;;;;;;;4931600;28;22121;-73
2022/12/27 15:06:19;;;;;;;4.63;1.30;;;;;;;;;;4912316;28;20241;-71
2022/12/27 15:09:05;;;;;;;1.97;1.17;;;;;;;;;;4920588;28;20668;-73
2022/12/27 15:11:36;;;;;;;1.83;1.20;;;;;;;;;;4937050;28;21087;-73
2022/12/27 15:14:20;;;;;;;1.90;1.30;;;;;;;;;;4919583;28;20205;-73
2022/12/27 15:16:47;;;;;;;2.30;1.43;;;;;;;;;;4905371;28;20209;-73
2022/12/27 15:19:24;;;;;;;3.90;1.67;;;;;;;;;;4908343;28;20231;-73
2022/12/27 15:21:57;;;;;;;1.73;1.63;;;;;;;;;;4924337;28;20227;-73
2022/12/27 15:24:28;;;;;;;1.70;1.60;;;;;;;;;;4927619;28;20578;-72
2022/12/27 15:27:01;;;;;;;1.90;1.80;;;;;;;;;;4915037;28;20223;-72
2022/12/27 15:29:47;;;;;;;2.50;2.30;;;;;;;;;;4924897;28;20342;-75
2022/12/27 15:32:31;;;;;;;4.73;3.83;;;;;;;;;;4928242;28;20229;-76
2022/12/27 15:35:16;;;;;;;6.60;4.37;;;;;;;;;;4938089;28;20209;-79
2022/12/27 15:37:46;;;;;;;8.93;4.50;;;;;;;;;;4951843;28;20204;-77
2022/12/27 15:40:20;;;;;;;10.00;5.80;;;;;;;;;;4930079;28;20248;-76
2022/12/27 15:43:00;;;;;;;8.73;4.67;;;;;;;;;;4963167;28;20200;-76
2022/12/27 15:45:37;;;;;;;10.83;6.87;;;;;;;;;;4954629;28;20244;-75
2022/12/27 15:48:07;;;;;;;28.23;15.97;;;;;;;;;;4955597;28;20216;-76
2022/12/27 15:50:43;;;;;;;30.20;15.13;;;;;;;;;;4953157;28;20415;-74
2022/12/27 15:53:30;;;;;;;28.10;14.80;;;;;;;;;;4941714;28;20673;-76
2022/12/27 15:56:22;;;;;;;12.37;6.83;;;;;;;;;;4951421;28;20208;-76
2022/12/27 15:59:08;;;;;;;3.80;3.33;;;;;;;;;;4952929;28;20204;-76
2022/12/27 16:01:37;;;;;;;9.60;5.37;;;;;;;;;;4951435;28;22145;-74
2022/12/27 16:04:31;;;;;;;10.40;5.73;;;;;;;;;;4944480;28;20215;-76
2022/12/27 16:07:00;;;;;;;8.70;5.27;;;;;;;;;;4963737;28;20303;-77
2022/12/27 16:09:31;;;;;;;6.07;4.20;;;;;;;;;;4958359;28;20255;-74
2022/12/27 16:12:01;;;;;;;7.50;5.37;;;;;;;;;;4954005;28;20240;-74
2022/12/27 16:14:30;;;;;;;12.00;7.70;;;;;;;;;;4946622;28;20208;-73
2022/12/27 16:17:13;;;;;;;7.73;5.97;;;;;;;;;;4945228;28;20657;-78
2022/12/27 16:19:46;;;;;;;8.57;5.63;;;;;;;;;;4950238;28;20849;-76
2022/12/27 16:22:21;;;;;;;15.40;9.07;;;;;;;;;;4968227;28;20335;-77
2022/12/27 16:24:49;;;;;;;14.97;9.40;;;;;;;;;;4948910;28;21757;-76
2022/12/27 16:27:27;;;;;;;12.40;7.80;;;;;;;;;;4942843;28;20518;-79
2022/12/27 16:29:55;;;;;;;22.50;15.20;;;;;;;;;;4942011;28;20488;-77
2022/12/27 16:32:24;;;;;;;9.23;7.53;;;;;;;;;;4943954;28;20308;-77
2022/12/27 16:34:54;;;;;;;10.17;6.40;;;;;;;;;;4959398;28;20209;-77
2022/12/27 16:37:26;;;;;;;14.30;7.73;;;;;;;;;;4933542;28;20205;-72
2022/12/27 16:40:10;;;;;;;15.07;7.63;;;;;;;;;;4959161;28;20214;-77
2022/12/27 16:42:47;;;;;;;14.27;8.67;;;;;;;;;;4958331;28;20303;-72
2022/12/27 16:45:34;;;;;;;24.57;14.87;;;;;;;;;;4956376;28;21488;-74